This is the latest recevied weather packets stored in our database for station/object N4OGP-WX. If no packets are shown the sender has not sent any weather packets the latest 10 day(s).
| Time | Temp. | Humidity | Pressure | Rain* | Wind** | Luminosity | Snow |
|---|---|---|---|---|---|---|---|
| 1777277415 | 20° C | 93% | 1010.9 hPa | 0 mm | - | - | - |
| 1777277355 | 23.89° C | 42% | 1020.4 hPa | 0 mm | - | - | - |
| 1777277295 | 20° C | 93% | 1010.9 hPa | 0 mm | - | - | - |
| 1777277205 | 23.89° C | 42% | 1020.4 hPa | 0 mm | - | - | - |
| 1777277145 | 20° C | 93% | 1010.9 hPa | 0 mm | - | - | - |
| 1777277055 | 20° C | 93% | 1010.9 hPa | 0 mm | - | - | - |
| 1777276995 | 20° C | 93% | 1010.9 hPa | 0 mm | - | - | - |
| 1777276935 | 23.89° C | 42% | 1020.4 hPa | 0 mm | - | - | - |
| 1777276875 | 20° C | 93% | 1010.9 hPa | 0 mm | - | - | - |
| 1777276785 | 20° C | 93% | 1010.9 hPa | 0 mm | - | - | - |
| 1777276725 | 23.89° C | 42% | 1020.4 hPa | 0 mm | - | - | - |
| 1777276665 | 20° C | 93% | 1010.9 hPa | 0 mm | - | - | - |
| 1777276605 | 20° C | 93% | 1010.9 hPa | 0 mm | - | - | - |
| 1777276545 | 23.89° C | 42% | 1020.4 hPa | 0 mm | - | - | - |
| 1777276485 | 20° C | 93% | 1010.9 hPa | 0 mm | - | - | - |
| 1777276425 | 23.89° C | 42% | 1020.4 hPa | 0 mm | - | - | - |
| 1777276365 | 23.89° C | 42% | 1020.4 hPa | 0 mm | - | - | - |
| 1777276305 | 20° C | 93% | 1010.9 hPa | 0 mm | - | - | - |
| 1777276215 | 20° C | 93% | 1011 hPa | 0 mm | - | - | - |
| 1777276125 | 20.56° C | 92% | 1011 hPa | 0 mm | - | - | - |
| 1777276065 | 23.89° C | 42% | 1020.4 hPa | 0 mm | - | - | - |
| 1777276005 | 20.56° C | 92% | 1011 hPa | 0 mm | - | - | - |
| 1777275945 | 20.56° C | 92% | 1011 hPa | 0 mm | - | - | - |
| 1777275885 | 23.89° C | 42% | 1020.4 hPa | 0 mm | - | - | - |
| 1777275825 | 20.56° C | 92% | 1011 hPa | 0 mm | - | - | - |
* Rain latest hour (hover to see other rain measurements)
** Current wind speed in m/s (hover to see current wind gust speed)